createdAt,value
2018-09-10T00:01:18.727Z,7.53
2018-09-10T00:03:54.516Z,7.00
2018-09-10T00:06:31.004Z,6.67
2018-09-10T00:09:08.924Z,6.30
2018-09-10T00:11:44.282Z,6.73
2018-09-10T00:14:19.893Z,6.60
2018-09-10T00:16:55.438Z,6.13
2018-09-10T00:19:30.705Z,6.67
2018-09-10T00:22:06.275Z,7.20
2018-09-10T00:24:41.609Z,7.20
2018-09-10T00:27:17.174Z,7.60
2018-09-10T00:29:53.105Z,7.33
2018-09-10T00:32:28.373Z,8.77
2018-09-10T00:35:03.957Z,8.10
2018-09-10T00:37:39.430Z,8.27
2018-09-10T00:40:14.830Z,7.10
2018-09-10T00:42:50.744Z,7.37
2018-09-10T00:45:25.987Z,7.90
2018-09-10T00:48:01.839Z,7.90
2018-09-10T00:50:37.788Z,7.90
2018-09-10T00:53:13.141Z,7.10
2018-09-10T00:55:47.899Z,7.37
2018-09-10T00:58:23.463Z,7.33
2018-09-10T01:00:58.748Z,7.40
2018-09-10T01:03:33.415Z,7.07
2018-09-10T01:06:08.572Z,6.73
2018-09-10T01:08:44.262Z,6.70
2018-09-10T01:11:19.400Z,8.90
2018-09-10T01:13:56.277Z,7.10
2018-09-10T01:16:33.770Z,6.93
2018-09-10T01:19:08.897Z,7.37
2018-09-10T01:21:45.037Z,9.00
2018-09-10T01:24:20.718Z,7.27
2018-09-10T01:26:55.904Z,7.33
2018-09-10T01:29:31.939Z,7.77
2018-09-10T01:32:07.745Z,8.00
2018-09-10T01:34:48.365Z,7.20
2018-09-10T01:37:24.992Z,7.60
2018-09-10T01:40:01.208Z,7.40
2018-09-10T01:42:37.271Z,6.87
2018-09-10T01:45:12.997Z,7.63
2018-09-10T01:47:48.942Z,8.50
2018-09-10T01:50:24.668Z,7.30
2018-09-10T01:53:00.705Z,7.13
2018-09-10T01:55:36.519Z,6.90
2018-09-10T01:58:12.650Z,8.20
2018-09-10T02:00:48.436Z,7.30
2018-09-10T02:03:24.818Z,7.40
2018-09-10T02:06:01.437Z,7.53
2018-09-10T02:08:37.830Z,6.93
2018-09-10T02:11:14.161Z,6.57
2018-09-10T02:13:49.903Z,7.00
2018-09-10T02:16:25.698Z,7.13
2018-09-10T02:19:01.674Z,7.67
2018-09-10T02:21:37.585Z,7.20
2018-09-10T02:24:12.749Z,6.97
2018-09-10T02:26:49.283Z,7.57
2018-09-10T02:29:25.199Z,7.77
2018-09-10T02:32:00.836Z,6.80
2018-09-10T02:34:36.702Z,8.60
2018-09-10T02:37:13.127Z,7.60
2018-09-10T02:39:48.422Z,8.00
2018-09-10T02:42:23.792Z,7.17
2018-09-10T02:44:59.222Z,8.10
2018-09-10T02:47:34.960Z,7.50
2018-09-10T02:50:10.755Z,8.00
2018-09-10T02:52:46.507Z,7.70
2018-09-10T02:55:22.201Z,6.23
2018-09-10T02:57:58.007Z,7.63
2018-09-10T03:00:33.679Z,7.33
2018-09-10T03:03:08.651Z,7.50
2018-09-10T03:05:43.991Z,7.60
2018-09-10T03:08:19.738Z,7.63
2018-09-10T03:10:55.470Z,7.47
2018-09-10T03:13:31.593Z,7.50
2018-09-10T03:16:06.976Z,8.10
2018-09-10T03:18:42.290Z,7.90
2018-09-10T03:21:18.946Z,7.70
2018-09-10T03:23:54.190Z,7.77
2018-09-10T03:26:30.557Z,8.00
2018-09-10T03:29:06.139Z,7.90
2018-09-10T03:31:41.556Z,7.67
2018-09-10T03:34:17.837Z,8.10
2018-09-10T03:36:54.051Z,8.67
2018-09-10T03:39:29.374Z,7.00
2018-09-10T03:42:05.100Z,8.30
2018-09-10T03:44:41.754Z,8.37
2018-09-10T03:47:17.568Z,8.27
2018-09-10T03:49:52.468Z,8.87
2018-09-10T03:52:27.948Z,9.40
2018-09-10T03:55:02.997Z,9.53
2018-09-10T03:57:38.851Z,8.90
2018-09-10T04:00:14.528Z,8.33
2018-09-10T04:02:51.145Z,8.50
2018-09-10T04:05:26.670Z,8.80
2018-09-10T04:08:02.859Z,7.83
2018-09-10T04:10:38.840Z,7.63
2018-09-10T04:13:15.081Z,8.83
2018-09-10T04:15:51.545Z,9.43
2018-09-10T04:18:27.725Z,7.93
2018-09-10T04:21:03.556Z,8.77
2018-09-10T04:23:39.262Z,8.30
2018-09-10T04:26:13.928Z,7.77
2018-09-10T04:28:49.934Z,8.20
2018-09-10T04:31:25.162Z,8.60
2018-09-10T04:34:00.088Z,8.03
2018-09-10T04:36:35.430Z,8.10
2018-09-10T04:39:12.426Z,7.53
2018-09-10T04:41:47.738Z,8.27
2018-09-10T04:44:23.104Z,8.67
2018-09-10T04:46:59.595Z,7.57
2018-09-10T04:49:34.862Z,7.17
2018-09-10T04:52:11.164Z,7.70
2018-09-10T04:54:47.693Z,6.93
2018-09-10T04:57:24.215Z,7.60
2018-09-10T04:59:59.120Z,8.03
2018-09-10T05:02:34.226Z,8.03
2018-09-10T05:05:09.939Z,7.30
2018-09-10T05:07:45.067Z,7.40
2018-09-10T05:10:20.407Z,7.13
2018-09-10T05:12:56.473Z,6.80
2018-09-10T05:15:31.874Z,7.53
2018-09-10T05:18:07.336Z,7.70
2018-09-10T05:20:43.422Z,7.20
2018-09-10T05:23:18.933Z,7.63
2018-09-10T05:25:54.577Z,8.17
2018-09-10T05:28:29.956Z,8.83
2018-09-10T05:31:05.101Z,7.43
2018-09-10T05:33:40.190Z,7.17
2018-09-10T05:36:16.083Z,7.90
2018-09-10T05:38:52.355Z,7.03
2018-09-10T05:41:27.865Z,6.97
2018-09-10T05:44:02.543Z,7.40
2018-09-10T05:46:37.339Z,8.37
2018-09-10T05:49:12.377Z,8.27
2018-09-10T05:51:47.539Z,7.57
2018-09-10T05:54:23.196Z,9.13
2018-09-10T05:56:58.156Z,9.90
2018-09-10T05:59:33.867Z,7.90
2018-09-10T06:02:09.272Z,8.60
2018-09-10T06:04:44.864Z,8.10
2018-09-10T06:07:19.841Z,6.97
2018-09-10T06:09:55.513Z,8.00
2018-09-10T06:12:32.277Z,8.63
2018-09-10T06:15:08.075Z,9.30
2018-09-10T06:17:43.661Z,7.70
2018-09-10T06:20:19.328Z,9.17
2018-09-10T06:22:55.657Z,8.00
2018-09-10T06:25:31.951Z,9.80
2018-09-10T06:28:07.515Z,7.90
2018-09-10T06:30:43.401Z,7.30
2018-09-10T06:33:19.447Z,8.10
2018-09-10T06:35:56.549Z,8.60
2018-09-10T06:38:31.530Z,7.40
2018-09-10T06:41:06.599Z,7.77
2018-09-10T06:43:41.839Z,7.50
2018-09-10T06:46:17.448Z,7.13
2018-09-10T06:48:52.890Z,7.63
2018-09-10T06:51:29.290Z,7.80
2018-09-10T06:54:04.661Z,7.10
2018-09-10T06:56:40.264Z,9.30
2018-09-10T06:59:15.217Z,8.33
2018-09-10T07:01:50.255Z,7.87
2018-09-10T07:04:26.044Z,7.70
2018-09-10T07:07:01.501Z,8.70
2018-09-10T07:09:36.298Z,7.60
2018-09-10T07:12:11.201Z,9.40
2018-09-10T07:14:47.417Z,7.50
2018-09-10T07:17:23.167Z,8.30
2018-09-10T07:19:58.967Z,9.00
2018-09-10T07:22:35.317Z,8.20
2018-09-10T07:25:09.948Z,8.20
2018-09-10T07:27:44.902Z,8.87
2018-09-10T07:30:20.428Z,7.80
2018-09-10T07:32:56.186Z,8.80
2018-09-10T07:35:31.669Z,7.40
2018-09-10T07:38:07.700Z,7.80
2018-09-10T07:40:43.221Z,9.27
2018-09-10T07:43:18.870Z,8.23
2018-09-10T07:45:55.128Z,7.17
2018-09-10T07:48:31.069Z,8.80
2018-09-10T07:51:06.864Z,7.83
2018-09-10T07:53:42.629Z,8.20
2018-09-10T07:56:18.102Z,7.63
2018-09-10T07:58:53.930Z,9.33
2018-09-10T08:01:30.150Z,10.80
2018-09-10T08:04:05.243Z,7.70
2018-09-10T08:06:41.038Z,8.43
2018-09-10T08:09:16.414Z,7.40
2018-09-10T08:11:52.458Z,9.17
2018-09-10T08:14:28.501Z,8.73
2018-09-10T08:17:05.656Z,8.37
2018-09-10T08:19:40.668Z,7.60
2018-09-10T08:22:15.456Z,7.40
2018-09-10T08:24:50.216Z,8.37
2018-09-10T08:27:25.614Z,8.07
2018-09-10T08:30:01.011Z,7.10
2018-09-10T08:32:36.630Z,6.90
2018-09-10T08:35:11.766Z,7.70
2018-09-10T08:37:47.430Z,7.70
2018-09-10T08:40:23.466Z,8.23
2018-09-10T08:42:59.067Z,7.47
2018-09-10T08:45:33.851Z,6.87
2018-09-10T08:48:08.835Z,7.33
2018-09-10T08:50:45.044Z,7.60
2018-09-10T08:53:21.507Z,7.13
2018-09-10T08:55:57.114Z,7.33
2018-09-10T08:58:32.923Z,7.67
2018-09-10T09:01:09.000Z,7.93
2018-09-10T09:03:44.755Z,6.93
2018-09-10T09:06:19.543Z,7.33
2018-09-10T09:08:55.901Z,8.43
2018-09-10T09:11:31.622Z,7.93
2018-09-10T09:14:06.164Z,7.37
2018-09-10T09:16:41.598Z,7.80
2018-09-10T09:19:16.660Z,7.37
2018-09-10T09:21:52.459Z,7.43
2018-09-10T09:24:27.477Z,7.53
2018-09-10T09:27:02.339Z,7.30
2018-09-10T09:29:37.842Z,8.37
2018-09-10T09:32:13.079Z,7.80
2018-09-10T09:34:53.980Z,9.07
2018-09-10T09:37:35.066Z,7.73
2018-09-10T09:40:15.564Z,7.93
2018-09-10T09:45:00.851Z,8.73
2018-09-10T09:47:36.287Z,9.30
2018-09-10T09:50:11.944Z,15.20
2018-09-10T09:52:46.992Z,9.00
2018-09-10T09:55:22.077Z,8.87
2018-09-10T09:57:57.939Z,8.43
2018-09-10T10:00:38.106Z,8.57
2018-09-10T10:03:16.057Z,10.83
2018-09-10T10:05:51.794Z,8.77
2018-09-10T10:08:29.850Z,8.90
2018-09-10T10:11:04.873Z,8.70
2018-09-10T10:13:40.944Z,8.47
2018-09-10T10:16:15.966Z,7.17
2018-09-10T10:18:50.814Z,8.50
2018-09-10T10:21:26.107Z,9.03
2018-09-10T10:24:01.590Z,7.70
2018-09-10T10:26:36.935Z,7.40
2018-09-10T10:29:13.301Z,8.27
2018-09-10T10:31:48.475Z,8.13
2018-09-10T10:34:24.209Z,8.60
2018-09-10T10:37:00.463Z,7.27
2018-09-10T10:39:35.794Z,8.27
2018-09-10T10:42:11.289Z,7.63
2018-09-10T10:44:46.616Z,6.90
2018-09-10T10:47:21.560Z,7.60
2018-09-10T10:49:57.414Z,7.50
2018-09-10T10:52:33.438Z,7.53
2018-09-10T10:55:11.480Z,7.07
2018-09-10T10:57:46.997Z,7.20
2018-09-10T11:00:21.903Z,7.97
2018-09-10T11:02:57.576Z,7.80
2018-09-10T11:05:32.312Z,7.27
2018-09-10T11:08:07.099Z,8.30
2018-09-10T11:10:42.738Z,8.00
2018-09-10T11:13:18.135Z,7.60
2018-09-10T11:15:52.942Z,7.87
2018-09-10T11:18:27.589Z,8.60
2018-09-10T11:21:02.589Z,7.30
2018-09-10T11:23:38.644Z,8.07
2018-09-10T11:26:14.252Z,7.80
2018-09-10T11:28:49.166Z,6.80
2018-09-10T11:31:24.237Z,7.83
2018-09-10T11:33:59.642Z,7.37
2018-09-10T11:36:34.653Z,16.67
2018-09-10T11:39:09.631Z,7.57
2018-09-10T11:41:45.787Z,8.17
2018-09-10T11:44:21.884Z,7.50
2018-09-10T11:46:57.178Z,8.30
2018-09-10T11:49:32.202Z,8.20
2018-09-10T11:52:07.335Z,7.70
2018-09-10T11:54:42.986Z,7.03
2018-09-10T11:57:18.533Z,8.40
2018-09-10T11:59:55.073Z,8.40
2018-09-10T12:02:30.600Z,8.37
2018-09-10T12:05:06.003Z,10.03
2018-09-10T12:07:41.663Z,9.40
2018-09-10T12:10:17.433Z,8.40
2018-09-10T12:12:53.173Z,7.93
2018-09-10T12:15:28.702Z,8.03
2018-09-10T12:18:03.315Z,8.20
2018-09-10T12:20:38.837Z,12.07
2018-09-10T12:23:15.176Z,7.77
2018-09-10T12:25:50.822Z,8.93
2018-09-10T12:28:26.911Z,7.63
2018-09-10T12:31:02.305Z,9.00
2018-09-10T12:33:37.351Z,9.33
2018-09-10T12:36:13.144Z,8.87
2018-09-10T12:38:48.741Z,8.80
2018-09-10T12:41:24.356Z,7.93
2018-09-10T12:44:00.091Z,8.10
2018-09-10T12:46:36.034Z,10.57
2018-09-10T12:49:11.573Z,8.83
2018-09-10T12:51:47.696Z,8.10
2018-09-10T12:54:22.822Z,7.73
2018-09-10T12:56:57.651Z,7.80
2018-09-10T12:59:33.195Z,8.10
2018-09-10T13:02:07.823Z,8.43
2018-09-10T13:04:42.638Z,8.63
2018-09-10T13:07:17.900Z,8.17
2018-09-10T13:09:52.661Z,9.07
2018-09-10T13:12:28.145Z,8.40
2018-09-10T13:15:03.810Z,8.00
2018-09-10T13:17:39.312Z,8.60
2018-09-10T13:20:14.477Z,8.93
2018-09-10T13:22:49.223Z,10.60
2018-09-10T13:25:24.841Z,8.70
2018-09-10T13:28:00.824Z,8.27
2018-09-10T13:30:36.248Z,8.23
2018-09-10T13:33:11.507Z,8.33
2018-09-10T13:35:46.721Z,9.30
2018-09-10T13:38:22.485Z,8.00
2018-09-10T13:40:58.765Z,8.90
2018-09-10T13:43:33.988Z,10.63
2018-09-10T13:46:08.916Z,8.33
2018-09-10T13:48:43.930Z,8.07
2018-09-10T13:51:19.350Z,8.20
2018-09-10T13:53:55.678Z,8.00
2018-09-10T13:56:30.839Z,8.47
2018-09-10T13:59:06.766Z,8.70
2018-09-10T14:01:42.470Z,8.63
2018-09-10T14:04:18.174Z,8.10
2018-09-10T14:06:53.512Z,8.73
2018-09-10T14:09:28.961Z,7.50
2018-09-10T14:12:04.746Z,8.20
2018-09-10T14:14:39.343Z,7.77
2018-09-10T14:17:15.126Z,7.63
2018-09-10T14:19:50.100Z,7.53
2018-09-10T14:22:25.199Z,6.93
2018-09-10T14:25:00.062Z,6.67
2018-09-10T14:27:35.683Z,7.40
2018-09-10T14:30:10.540Z,7.50
2018-09-10T14:32:46.264Z,6.70
2018-09-10T14:35:21.096Z,7.13
2018-09-10T14:37:56.303Z,6.27
2018-09-10T14:40:31.730Z,6.67
2018-09-10T14:43:06.437Z,7.90
2018-09-10T14:45:41.516Z,7.13
2018-09-10T14:48:16.593Z,6.67
2018-09-10T14:50:51.886Z,8.80
2018-09-10T14:53:27.815Z,6.57
2018-09-10T14:56:03.714Z,6.40
2018-09-10T14:58:39.152Z,7.10
2018-09-10T15:01:14.478Z,7.27
2018-09-10T15:03:49.980Z,6.40
2018-09-10T15:06:24.955Z,6.80
2018-09-10T15:09:00.096Z,6.70
2018-09-10T15:11:35.423Z,8.30
2018-09-10T15:14:10.742Z,7.33
2018-09-10T15:16:45.869Z,8.10
2018-09-10T15:19:20.833Z,8.10
2018-09-10T15:24:37.615Z,7.33
2018-09-10T15:27:12.440Z,7.43
2018-09-10T15:29:47.335Z,6.37
2018-09-10T15:32:22.295Z,8.40
2018-09-10T15:34:59.173Z,7.60
2018-09-10T15:37:34.454Z,7.63
2018-09-10T15:40:09.552Z,7.30
2018-09-10T15:42:45.017Z,7.37
2018-09-10T15:45:20.983Z,6.63
2018-09-10T15:47:56.547Z,7.63
2018-09-10T15:50:31.610Z,7.20
2018-09-10T15:53:13.785Z,7.93
2018-09-10T15:55:49.508Z,7.70
2018-09-10T15:58:25.199Z,8.00
2018-09-10T16:01:00.265Z,8.83
2018-09-10T16:03:35.442Z,7.57
2018-09-10T16:06:11.048Z,7.97
2018-09-10T16:08:46.536Z,8.50
2018-09-10T16:11:23.210Z,7.97
2018-09-10T16:13:58.875Z,6.97
2018-09-10T16:16:35.779Z,7.80
2018-09-10T16:19:11.113Z,7.00
2018-09-10T16:21:47.662Z,7.00
2018-09-10T16:24:22.548Z,7.10
2018-09-10T16:26:59.782Z,6.20
2018-09-10T16:29:37.635Z,6.63
2018-09-10T16:32:14.387Z,7.60
2018-09-10T16:34:49.445Z,7.53
2018-09-10T16:37:24.508Z,6.77
2018-09-10T16:40:00.572Z,5.20
2018-09-10T16:42:36.187Z,5.97
2018-09-10T16:45:11.602Z,6.70
2018-09-10T16:47:46.962Z,6.30
2018-09-10T16:50:23.655Z,5.87
2018-09-10T16:53:02.536Z,6.73
2018-09-10T16:55:39.685Z,6.27
2018-09-10T16:58:15.347Z,5.90
2018-09-10T17:00:51.121Z,5.97
2018-09-10T17:03:27.231Z,6.80
2018-09-10T17:06:04.879Z,6.70
2018-09-10T17:08:41.986Z,6.20
2018-09-10T17:11:18.522Z,6.90
2018-09-10T17:13:54.344Z,7.10
2018-09-10T17:16:29.818Z,6.93
2018-09-10T17:19:05.071Z,7.10
2018-09-10T17:21:42.246Z,7.30
2018-09-10T17:24:18.844Z,7.03
2018-09-10T17:27:02.090Z,6.57
2018-09-10T17:29:38.741Z,6.90
2018-09-10T17:32:15.667Z,8.10
2018-09-10T17:34:53.883Z,7.90
2018-09-10T17:37:30.103Z,8.10
2018-09-10T17:40:05.676Z,6.30
2018-09-10T17:42:42.476Z,7.10
2018-09-10T17:45:18.365Z,8.77
2018-09-10T17:47:53.531Z,6.70
2018-09-10T17:50:28.439Z,6.73
2018-09-10T17:53:03.369Z,7.37
2018-09-10T17:55:38.693Z,7.50
2018-09-10T17:58:14.995Z,9.10
2018-09-10T18:00:50.567Z,7.47
2018-09-10T18:03:25.984Z,6.70
2018-09-10T18:06:02.039Z,8.30
2018-09-10T18:08:38.068Z,7.47
2018-09-10T18:11:15.239Z,8.23
2018-09-10T18:16:43.954Z,7.63
2018-09-10T18:19:18.925Z,8.67
2018-09-10T18:21:53.845Z,8.20
2018-09-10T18:24:28.619Z,7.17
2018-09-10T18:27:03.378Z,6.60
2018-09-10T18:29:38.393Z,8.20
2018-09-10T18:32:14.701Z,7.63
2018-09-10T18:34:51.683Z,7.40
2018-09-10T18:37:28.699Z,8.70
2018-09-10T18:40:04.641Z,7.87
2018-09-10T18:42:41.903Z,8.43
2018-09-10T18:45:17.461Z,8.60
2018-09-10T18:47:52.778Z,7.80
2018-09-10T18:50:28.722Z,9.03
2018-09-10T18:53:04.869Z,8.80
2018-09-10T18:55:39.651Z,8.30
2018-09-10T18:58:15.554Z,7.40
2018-09-10T19:00:52.248Z,8.70
2018-09-10T19:03:28.012Z,6.90
2018-09-10T19:06:03.929Z,7.30
2018-09-10T19:08:40.001Z,7.00
2018-09-10T19:11:15.467Z,7.60
2018-09-10T19:13:50.991Z,10.13
2018-09-10T19:16:26.473Z,9.80
2018-09-10T19:19:01.256Z,10.20
2018-09-10T19:21:35.985Z,11.73
2018-09-10T19:24:12.425Z,8.00
2018-09-10T19:26:50.435Z,8.90
2018-09-10T19:29:25.538Z,9.57
2018-09-10T19:32:01.060Z,9.50
2018-09-10T19:34:36.923Z,10.97
2018-09-10T19:37:13.168Z,8.50
2018-09-10T19:39:48.717Z,8.10
2018-09-10T19:42:24.748Z,7.63
2018-09-10T19:45:00.937Z,9.87
2018-09-10T19:47:35.857Z,9.60
2018-09-10T19:50:12.464Z,8.70
2018-09-10T19:52:47.381Z,9.40
2018-09-10T19:55:23.737Z,10.77
2018-09-10T19:58:00.670Z,8.07
2018-09-10T20:00:36.157Z,10.40
2018-09-10T20:03:15.513Z,10.90
2018-09-10T20:05:52.063Z,11.77
2018-09-10T20:08:31.377Z,12.50
2018-09-10T20:11:06.855Z,10.23
2018-09-10T20:13:42.929Z,10.80
2018-09-10T20:16:18.172Z,9.83
2018-09-10T20:18:53.803Z,9.43
2018-09-10T20:21:32.337Z,8.70
2018-09-10T20:24:07.105Z,8.43
2018-09-10T20:26:42.933Z,8.47
2018-09-10T20:29:19.741Z,8.37
2018-09-10T20:31:55.419Z,8.83
2018-09-10T20:34:30.940Z,9.90
2018-09-10T20:37:06.308Z,10.17
2018-09-10T20:39:41.798Z,9.83
2018-09-10T20:42:16.936Z,9.70
2018-09-10T20:44:53.228Z,8.97
2018-09-10T20:47:28.331Z,7.90
2018-09-10T20:50:03.571Z,8.30
2018-09-10T20:52:38.168Z,9.27
2018-09-10T20:55:12.967Z,8.83
2018-09-10T20:57:48.906Z,10.73
2018-09-10T21:00:24.598Z,10.10
2018-09-10T21:03:00.027Z,11.50
2018-09-10T21:05:36.645Z,11.30
2018-09-10T21:08:11.956Z,11.13
2018-09-10T21:10:48.241Z,10.23
2018-09-10T21:13:24.314Z,11.40
2018-09-10T21:15:59.985Z,10.07
2018-09-10T21:18:35.506Z,12.17
2018-09-10T21:21:10.966Z,12.70
2018-09-10T21:23:46.618Z,11.87
2018-09-10T21:26:22.003Z,11.40
2018-09-10T21:28:57.495Z,12.53
2018-09-10T21:31:32.479Z,10.80
2018-09-10T21:34:08.143Z,11.77
2018-09-10T21:36:44.943Z,16.13
2018-09-10T21:39:19.688Z,13.13
2018-09-10T21:41:54.513Z,11.77
2018-09-10T21:44:29.533Z,12.30
2018-09-10T21:47:12.084Z,12.63
2018-09-10T21:49:47.164Z,13.10
2018-09-10T21:52:22.334Z,14.10
2018-09-10T21:54:57.783Z,13.60
2018-09-10T21:57:33.852Z,11.43
2018-09-10T22:00:09.652Z,13.00
2018-09-10T22:02:44.617Z,11.60
2018-09-10T22:05:19.964Z,12.17
2018-09-10T22:07:54.822Z,11.43
2018-09-10T22:10:31.229Z,17.40
2018-09-10T22:13:07.390Z,11.60
2018-09-10T22:15:43.386Z,12.40
2018-09-10T22:18:19.137Z,10.83
2018-09-10T22:20:54.061Z,11.50
2018-09-10T22:23:29.250Z,13.10
2018-09-10T22:26:05.022Z,11.20
2018-09-10T22:28:40.164Z,12.73
2018-09-10T22:31:15.295Z,13.90
2018-09-10T22:33:50.781Z,12.70
2018-09-10T22:36:26.315Z,11.57
2018-09-10T22:39:01.831Z,13.67
2018-09-10T22:41:37.910Z,12.97
2018-09-10T22:44:14.004Z,13.60
2018-09-10T22:46:49.878Z,12.67
2018-09-10T22:49:25.378Z,12.17
2018-09-10T22:52:01.542Z,13.30
2018-09-10T22:54:37.413Z,14.00
2018-09-10T22:57:12.716Z,12.80
2018-09-10T22:59:48.178Z,12.63
2018-09-10T23:02:26.705Z,12.63
2018-09-10T23:05:02.646Z,12.53
2018-09-10T23:07:38.235Z,21.63
2018-09-10T23:10:13.662Z,10.60
2018-09-10T23:12:48.997Z,13.90
2018-09-10T23:15:25.845Z,14.10
2018-09-10T23:18:02.069Z,14.40
2018-09-10T23:20:38.508Z,12.63
2018-09-10T23:23:14.583Z,13.00
2018-09-10T23:25:50.011Z,12.80
2018-09-10T23:28:25.949Z,13.00
2018-09-10T23:31:01.690Z,13.17
2018-09-10T23:33:38.184Z,14.40
2018-09-10T23:36:14.008Z,13.23
2018-09-10T23:38:49.255Z,15.10
2018-09-10T23:41:23.985Z,13.23
2018-09-10T23:43:59.458Z,13.27
2018-09-10T23:46:34.915Z,11.83
2018-09-10T23:49:10.263Z,11.50
2018-09-10T23:51:45.321Z,12.30
2018-09-10T23:54:21.237Z,13.20
2018-09-10T23:56:57.371Z,14.33
2018-09-10T23:59:32.875Z,13.17
